Time;durP1;ratioP1;P1;durP2;ratioP2;P2;SDS_P1;SDS_P2;PMS_P1;PMS_P2;Temp;Humidity;BMP_temperature;BMP_pressure;BME280_temperature;BME280_humidity;BME280_pressure;Samples;Min_cycle;Max_cycle;Signal;HPM_P1;HPM_P2
2021/07/13 00:01:50;;;;;;;2.35;2.17;;;;;;;19.21;78.13;95390.63;5138830;57;20658;-71
2021/07/13 00:06:54;;;;;;;1.95;1.85;;;;;;;18.97;79.46;95376.13;5130498;57;20144;-70
2021/07/13 00:11:59;;;;;;;1.90;1.80;;;;;;;18.83;80.48;95372.59;5138764;57;20127;-71
2021/07/13 00:17:06;;;;;;;4.22;2.28;;;;;;;18.69;80.92;95368.28;5130284;57;20126;-69
2021/07/13 00:22:08;;;;;;;2.30;2.10;;;;;;;18.68;81.27;95372.38;5138931;57;20219;-70
2021/07/13 00:27:10;;;;;;;3.75;2.00;;;;;;;18.57;81.78;95367.75;5140092;57;20148;-70
2021/07/13 00:32:13;;;;;;;2.67;1.80;;;;;;;18.48;81.98;95359.78;5142279;57;20591;-70
2021/07/13 00:37:15;;;;;;;2.00;1.80;;;;;;;18.51;82.48;95343.97;5141637;57;20152;-71
2021/07/13 00:42:18;;;;;;;2.45;2.25;;;;;;;18.55;81.89;95347.94;5133507;57;20140;-69
2021/07/13 00:47:24;;;;;;;2.40;2.20;;;;;;;18.59;82.07;95331.59;5141879;57;20707;-69
2021/07/13 00:52:28;;;;;;;3.08;1.90;;;;;;;18.66;81.71;95335.03;5142239;57;20245;-70
2021/07/13 00:57:30;;;;;;;2.53;1.98;;;;;;;18.55;82.24;95324.81;5140939;57;20266;-71
2021/07/13 01:02:33;;;;;;;2.30;2.10;;;;;;;18.55;82.15;95330.41;5140725;57;20140;-69
2021/07/13 01:07:57;;;;;;;2.40;2.00;;;;;;;18.40;83.26;95325.34;5140431;57;20126;-69
2021/07/13 01:13:26;;;;;;;2.30;1.90;;;;;;;18.31;84.00;95314.59;5140632;57;20694;-69
2021/07/13 01:18:36;;;;;;;2.08;1.95;;;;;;;18.32;84.09;95310.47;5140604;57;20592;-71
2021/07/13 01:23:56;;;;;;;1.95;1.85;;;;;;;18.36;84.13;95302.50;5140977;57;20148;-71
2021/07/13 01:29:03;;;;;;;2.83;2.10;;;;;;;18.37;84.21;95298.44;5140963;57;20569;-69
2021/07/13 01:34:10;;;;;;;4.50;2.10;;;;;;;18.39;84.55;95304.25;5140833;57;20130;-70
2021/07/13 01:39:17;;;;;;;2.28;2.08;;;;;;;18.42;84.33;95322.75;5140400;57;20149;-71
2021/07/13 01:44:21;;;;;;;2.83;2.08;;;;;;;18.57;84.16;95305.44;5140735;57;20190;-70
2021/07/13 01:49:26;;;;;;;5.55;2.20;;;;;;;18.56;84.61;95298.34;5140582;57;20144;-71
2021/07/13 01:54:33;;;;;;;5.47;2.20;;;;;;;18.52;84.67;95300.72;5140301;57;20612;-71
2021/07/13 01:59:39;;;;;;;2.38;2.17;;;;;;;18.67;84.16;95314.16;5140427;57;20121;-70
2021/07/13 02:04:43;;;;;;;5.60;2.22;;;;;;;18.61;83.60;95297.50;5139815;57;20143;-70
2021/07/13 02:09:46;;;;;;;4.13;2.60;;;;;;;18.62;82.98;95298.97;5140020;57;20134;-71
2021/07/13 02:14:48;;;;;;;4.45;2.83;;;;;;;18.65;83.24;95317.50;5139711;57;20159;-71
2021/07/13 02:19:50;;;;;;;2.60;2.40;;;;;;;18.78;82.42;95305.50;5139844;57;20126;-70
2021/07/13 02:24:53;;;;;;;2.55;2.35;;;;;;;18.72;83.18;95307.69;5139257;57;20144;-70
2021/07/13 02:29:58;;;;;;;4.10;2.53;;;;;;;18.78;82.75;95294.31;5144259;57;20112;-70
2021/07/13 02:35:04;;;;;;;3.13;2.80;;;;;;;18.80;82.94;95294.53;5145869;57;20117;-69
2021/07/13 02:40:08;;;;;;;2.35;2.17;;;;;;;18.76;83.48;95271.72;5139537;57;20150;-70
2021/07/13 02:45:12;;;;;;;2.58;2.38;;;;;;;18.76;83.37;95272.47;5141183;57;20592;-70
2021/07/13 02:50:17;;;;;;;2.63;2.10;;;;;;;18.82;83.34;95258.34;5139549;57;20563;-70
2021/07/13 02:55:22;;;;;;;2.50;2.30;;;;;;;18.87;83.68;95269.44;5139113;57;20596;-69
2021/07/13 03:00:25;;;;;;;2.60;2.50;;;;;;;18.88;83.38;95256.19;5139607;57;20778;-71
2021/07/13 03:05:29;;;;;;;2.10;2.00;;;;;;;18.77;84.04;95273.25;5139031;57;20125;-71
2021/07/13 03:10:32;;;;;;;2.88;2.35;;;;;;;18.73;83.82;95272.78;5139132;57;20125;-71
2021/07/13 03:15:34;;;;;;;2.50;2.30;;;;;;;18.59;84.47;95278.41;5138785;57;20113;-70
2021/07/13 03:20:38;;;;;;;2.28;1.92;;;;;;;18.59;84.66;95281.22;5139173;57;20135;-70
2021/07/13 03:25:53;;;;;;;3.47;2.13;;;;;;;18.54;84.85;95279.28;5138835;57;20117;-70
2021/07/13 03:30:56;;;;;;;3.25;2.42;;;;;;;18.46;85.00;95270.06;5138907;57;20673;-70
2021/07/13 03:35:58;;;;;;;2.42;2.22;;;;;;;18.42;85.22;95274.44;5138945;57;20134;-70
2021/07/13 03:41:01;;;;;;;2.47;2.30;;;;;;;18.44;85.39;95286.59;5138558;57;20148;-70
2021/07/13 03:46:04;;;;;;;5.68;2.60;;;;;;;18.42;85.58;95261.22;5138557;57;20235;-71
2021/07/13 03:51:10;;;;;;;2.78;2.58;;;;;;;18.47;85.15;95268.78;5138947;57;20126;-71
2021/07/13 03:56:12;;;;;;;2.35;2.15;;;;;;;18.41;85.27;95270.13;5138169;57;20144;-70
2021/07/13 04:01:15;;;;;;;2.28;2.17;;;;;;;18.55;84.58;95286.41;5138993;57;20255;-71
2021/07/13 04:06:18;;;;;;;3.88;2.33;;;;;;;18.40;85.05;95288.22;5141542;57;20135;-69
2021/07/13 04:11:20;;;;;;;2.85;2.28;;;;;;;18.38;85.83;95294.34;5141511;57;20603;-71
2021/07/13 04:16:22;;;;;;;2.80;2.60;;;;;;;18.40;85.38;95300.16;5141237;57;20241;-70
2021/07/13 04:21:25;;;;;;;2.90;2.63;;;;;;;18.42;84.90;95305.97;5140935;57;20236;-70
2021/07/13 04:26:28;;;;;;;2.63;2.42;;;;;;;18.70;84.04;95310.28;5141001;57;20695;-70
2021/07/13 04:31:30;;;;;;;4.05;2.40;;;;;;;19.06;83.23;95305.69;5141259;57;20130;-71
2021/07/13 04:36:33;;;;;;;3.65;2.47;;;;;;;18.98;83.48;95282.44;5140984;57;20121;-70
2021/07/13 04:41:36;;;;;;;2.42;2.22;;;;;;;19.46;81.83;95295.84;5141258;57;20130;-69
2021/07/13 04:46:39;;;;;;;3.40;2.67;;;;;;;19.74;80.46;95283.97;5140739;57;20138;-70
2021/07/13 04:51:41;;;;;;;2.35;2.25;;;;;;;19.92;80.34;95277.38;5141009;57;20227;-70
2021/07/13 04:56:43;;;;;;;2.58;2.38;;;;;;;19.71;80.11;95271.03;5140771;57;20138;-71
2021/07/13 05:01:46;;;;;;;2.63;2.30;;;;;;;20.08;79.03;95272.63;5143351;57;20134;-70
2021/07/13 05:06:49;;;;;;;3.35;2.38;;;;;;;20.28;78.34;95286.63;5141356;57;20144;-71
2021/07/13 05:11:52;;;;;;;2.80;2.60;;;;;;;20.04;79.19;95282.13;5140823;57;20223;-70
2021/07/13 05:16:56;;;;;;;3.90;2.30;;;;;;;20.08;79.57;95279.00;5151346;57;20214;-71
2021/07/13 05:22:02;;;;;;;2.70;2.50;;;;;;;20.14;78.58;95276.78;5153942;57;20663;-70
2021/07/13 05:27:04;;;;;;;4.78;2.10;;;;;;;20.32;79.11;95266.63;5140246;57;20184;-69
2021/07/13 05:32:07;;;;;;;2.85;2.65;;;;;;;20.66;78.55;95261.56;5140835;57;20131;-71
2021/07/13 05:37:11;;;;;;;2.83;2.63;;;;;;;20.91;76.23;95254.19;5140279;57;20130;-71
2021/07/13 05:42:13;;;;;;;7.47;2.42;;;;;;;20.59;76.61;95253.88;5139059;57;20239;-71
2021/07/13 05:47:16;;;;;;;3.17;2.70;;;;;;;20.58;77.35;95252.38;5138516;57;20130;-70
2021/07/13 05:52:18;;;;;;;4.25;2.60;;;;;;;20.50;77.33;95252.34;5139046;57;20117;-71
2021/07/13 05:57:20;;;;;;;4.22;2.53;;;;;;;20.92;75.50;95252.88;5138415;57;20122;-70
2021/07/13 06:02:23;;;;;;;2.40;2.20;;;;;;;20.94;76.40;95246.72;5138674;57;20144;-71
2021/07/13 06:07:25;;;;;;;3.15;2.95;;;;;;;20.56;76.26;95246.53;5139064;57;20126;-71
2021/07/13 06:12:27;;;;;;;2.85;2.60;;;;;;;20.88;77.31;95272.13;5138969;57;20125;-73
2021/07/13 06:17:30;;;;;;;5.35;2.80;;;;;;;21.11;75.82;95261.78;5138056;57;20240;-71
2021/07/13 06:22:32;;;;;;;2.42;2.25;;;;;;;21.40;75.57;95285.63;5138914;57;20135;-72
2021/07/13 06:27:34;;;;;;;3.17;2.00;;;;;;;21.39;75.77;95277.75;5138114;57;20144;-72
2021/07/13 06:32:37;;;;;;;2.50;2.25;;;;;;;21.20;76.49;95268.91;5139681;57;20226;-71
2021/07/13 06:37:41;;;;;;;2.47;2.28;;;;;;;21.06;75.50;95257.06;5139282;57;20884;-72
2021/07/13 06:42:43;;;;;;;3.42;2.28;;;;;;;21.60;75.27;95263.53;5139959;57;20138;-70
2021/07/13 06:47:48;;;;;;;3.95;2.50;;;;;;;21.53;74.75;95265.00;5139223;57;20245;-70
2021/07/13 06:52:51;;;;;;;2.38;2.22;;;;;;;21.97;74.22;95277.63;5139671;57;20130;-72
2021/07/13 06:57:53;;;;;;;2.50;2.10;;;;;;;21.97;73.77;95282.50;5139410;57;20134;-71
2021/07/13 07:02:56;;;;;;;2.65;2.20;;;;;;;22.32;72.63;95283.59;5138646;57;20143;-71
2021/07/13 07:07:58;;;;;;;3.40;2.17;;;;;;;22.59;71.60;95282.59;5154060;57;20694;-71
2021/07/13 07:13:01;;;;;;;3.08;2.38;;;;;;;22.01;74.29;95289.25;5159875;57;20133;-70
2021/07/13 07:18:03;;;;;;;2.55;2.03;;;;;;;21.94;72.49;95292.06;5160411;57;20103;-71
2021/07/13 07:23:06;;;;;;;2.42;2.22;;;;;;;22.27;73.22;95298.63;5160348;57;20594;-72
2021/07/13 07:28:11;;;;;;;3.58;2.60;;;;;;;22.27;72.57;95307.81;5161021;57;20156;-71
2021/07/13 07:33:13;;;;;;;2.60;2.40;;;;;;;22.24;73.33;95303.31;5159951;57;20710;-71
2021/07/13 07:38:16;;;;;;;3.45;2.42;;;;;;;22.06;73.16;95301.63;5164196;57;20142;-70
2021/07/13 07:43:19;;;;;;;4.20;2.42;;;;;;;22.32;71.58;95292.78;5168095;57;20134;-70
2021/07/13 07:48:21;;;;;;;3.15;2.85;;;;;;;22.21;71.06;95293.16;5166686;57;20165;-72
2021/07/13 07:53:23;;;;;;;3.85;2.90;;;;;;;22.79;71.15;95300.59;5165558;57;20590;-71
2021/07/13 07:58:26;;;;;;;2.92;2.72;;;;;;;22.98;70.08;95305.81;5163589;57;20151;-71
2021/07/13 08:03:28;;;;;;;3.10;2.80;;;;;;;23.47;68.40;95298.22;5148122;57;20122;-71
2021/07/13 08:08:31;;;;;;;3.15;2.95;;;;;;;23.96;65.59;95306.00;5147459;57;20130;-70
2021/07/13 08:13:33;;;;;;;6.55;3.10;;;;;;;24.20;65.32;95310.16;5136720;57;20738;-70
2021/07/13 08:18:35;;;;;;;3.10;2.90;;;;;;;24.56;63.20;95309.66;5144585;57;20205;-70
2021/07/13 08:23:38;;;;;;;3.60;3.10;;;;;;;24.56;62.10;95320.94;5143984;57;20674;-71
2021/07/13 08:28:41;;;;;;;3.30;3.10;;;;;;;24.66;63.23;95330.25;5144471;57;20121;-71
2021/07/13 08:33:43;;;;;;;3.72;3.50;;;;;;;24.72;62.68;95323.00;5144375;57;20148;-72
2021/07/13 08:38:45;;;;;;;3.78;3.47;;;;;;;24.59;61.89;95328.25;5144061;57;20144;-71
2021/07/13 08:43:50;;;;;;;4.07;3.60;;;;;;;23.50;64.25;95347.09;5143922;57;20125;-71
2021/07/13 08:48:54;;;;;;;4.07;3.67;;;;;;;23.77;64.73;95342.44;5138007;57;20140;-71
2021/07/13 08:53:56;;;;;;;4.00;3.53;;;;;;;23.99;64.41;95349.25;5140018;57;20122;-72
2021/07/13 08:59:00;;;;;;;3.50;3.20;;;;;;;23.85;63.90;95348.78;5139004;57;20127;-72
2021/07/13 09:04:05;;;;;;;5.05;4.65;;;;;;;23.43;64.57;95353.53;5139546;57;20253;-71
2021/07/13 09:09:11;;;;;;;4.28;3.88;;;;;;;24.83;62.05;95352.91;5138775;57;20216;-71
2021/07/13 09:14:13;;;;;;;4.15;3.85;;;;;;;25.60;58.47;95368.44;5140307;57;20122;-70
2021/07/13 09:19:16;;;;;;;4.93;3.72;;;;;;;25.14;60.50;95371.03;5137317;57;20587;-72
2021/07/13 09:24:21;;;;;;;4.72;4.28;;;;;;;25.85;58.43;95371.09;5139577;57;20225;-71
2021/07/13 09:29:41;;;;;;;3.63;3.33;;;;;;;27.05;54.34;95384.69;5138277;57;20130;-70
2021/07/13 09:34:48;;;;;;;5.65;3.13;;;;;;;26.53;56.22;95387.09;5140079;57;20126;-69
2021/07/13 09:40:11;;;;;;;6.03;3.60;;;;;;;26.91;55.28;95385.09;5139287;57;20697;-70
2021/07/13 09:45:19;;;;;;;2.90;2.70;;;;;;;27.32;53.07;95373.97;5138679;57;20122;-71
2021/07/13 09:50:45;;;;;;;3.08;2.88;;;;;;;27.15;53.07;95372.00;5139646;57;20125;-69
2021/07/13 09:55:50;;;;;;;3.40;3.10;;;;;;;25.35;55.97;95376.25;5139570;57;20650;-71
2021/07/13 10:00:58;;;;;;;3.17;2.97;;;;;;;27.09;54.60;95380.06;5136477;57;20122;-71
2021/07/13 10:06:01;;;;;;;3.40;3.10;;;;;;;25.90;56.12;95368.00;5136504;57;20180;-69
2021/07/13 10:11:03;;;;;;;4.63;3.63;;;;;;;25.54;58.85;95365.84;5173465;46;20285;-75
2021/07/13 10:16:06;;;;;;;3.30;3.10;;;;;;;27.29;53.40;95372.31;5140370;57;20121;-75
2021/07/13 10:21:08;;;;;;;4.63;3.38;;;;;;;24.96;60.26;95392.16;5139247;57;20131;-75
2021/07/13 10:26:11;;;;;;;1.83;1.67;;;;;;;23.09;63.47;95413.19;5139711;57;20131;-76
2021/07/13 10:31:13;;;;;;;1.20;1.00;;;;;;;22.37;65.55;95431.84;5139637;57;20134;-74
2021/07/13 10:36:26;;;;;;;0.70;0.70;;;;;;;21.26;67.23;95455.69;5139395;57;20136;-75
2021/07/13 10:41:32;;;;;;;0.70;0.70;;;;;;;22.39;66.49;95455.28;5139348;57;20121;-76
2021/07/13 10:46:34;;;;;;;0.30;0.30;;;;;;;22.11;66.19;95456.22;5139276;57;20143;-76
2021/07/13 10:51:37;;;;;;;0.43;0.43;;;;;;;21.56;67.06;95477.56;5139365;57;20783;-76
2021/07/13 10:56:40;;;;;;;1.75;0.60;;;;;;;21.04;67.93;95473.16;5139278;57;20134;-76
2021/07/13 11:01:43;;;;;;;0.65;0.65;;;;;;;21.07;66.47;95493.78;5139103;57;20654;-76
2021/07/13 11:06:53;;;;;;;0.47;0.47;;;;;;;19.99;69.77;95504.56;5139111;57;20130;-76
2021/07/13 11:12:11;;;;;;;0.50;0.50;;;;;;;19.75;70.04;95530.09;5138668;57;20670;-76
2021/07/13 11:17:19;;;;;;;0.95;0.50;;;;;;;19.60;69.52;95515.91;5139056;57;20157;-75
2021/07/13 11:22:21;;;;;;;0.50;0.50;;;;;;;19.48;70.36;95525.81;5139169;57;20582;-75
2021/07/13 11:27:23;;;;;;;0.40;0.40;;;;;;;19.92;69.17;95529.75;5139072;57;20148;-76
2021/07/13 11:32:26;;;;;;;0.60;0.60;;;;;;;19.61;69.80;95541.84;5139805;57;20142;-75
2021/07/13 11:37:29;;;;;;;1.00;0.50;;;;;;;19.10;69.87;95552.53;5157021;57;20124;-74
2021/07/13 11:42:31;;;;;;;0.43;0.43;;;;;;;18.68;69.64;95557.06;5157764;57;20112;-74
2021/07/13 11:47:34;;;;;;;0.40;0.40;;;;;;;18.35;71.18;95558.34;5158647;57;20636;-75
2021/07/13 11:52:37;;;;;;;0.40;0.40;;;;;;;18.42;69.68;95580.09;5144223;57;20112;-76
2021/07/13 11:57:49;;;;;;;2.25;0.40;;;;;;;18.88;69.75;95592.13;5138001;57;20157;-75
2021/07/13 12:02:53;;;;;;;0.85;0.40;;;;;;;18.30;69.60;95601.13;5137791;57;20151;-74
2021/07/13 12:07:56;;;;;;;0.75;0.50;;;;;;;18.57;68.90;95593.63;5133536;57;20278;-75
2021/07/13 12:13:00;;;;;;;0.50;0.50;;;;;;;18.73;69.68;95594.66;5134102;57;20130;-75
2021/07/13 12:18:03;;;;;;;0.40;0.40;;;;;;;18.78;68.80;95602.19;5141670;57;20213;-75
2021/07/13 12:23:05;;;;;;;0.30;0.30;;;;;;;18.90;69.43;95611.94;5139259;57;20565;-75
2021/07/13 12:28:11;;;;;;;0.30;0.30;;;;;;;19.00;68.07;95629.81;5138642;57;20121;-75
2021/07/13 12:33:21;;;;;;;0.50;0.50;;;;;;;18.54;69.31;95620.63;5143436;57;20125;-76
2021/07/13 12:38:26;;;;;;;0.30;0.30;;;;;;;18.49;69.52;95629.88;5147366;57;20118;-76
2021/07/13 12:43:29;;;;;;;0.30;0.30;;;;;;;18.52;70.41;95636.47;5148055;57;20135;-76
2021/07/13 12:48:32;;;;;;;2.17;0.50;;;;;;;18.46;71.71;95616.94;5144742;57;20135;-76
2021/07/13 12:53:34;;;;;;;0.40;0.40;;;;;;;18.00;72.37;95634.09;5130924;57;20156;-75
2021/07/13 12:58:36;;;;;;;0.15;0.15;;;;;;;17.83;72.82;95641.94;5140504;57;20126;-75
2021/07/13 13:03:40;;;;;;;0.30;0.30;;;;;;;17.43;74.20;95631.69;5146503;57;20653;-75
2021/07/13 13:08:44;;;;;;;1.65;0.32;;;;;;;17.64;74.66;95641.16;5139984;57;20234;-75
2021/07/13 13:13:47;;;;;;;0.20;0.10;;;;;;;17.59;75.03;95644.75;5140113;57;20126;-75
2021/07/13 13:18:54;;;;;;;0.20;0.20;;;;;;;17.37;76.15;95670.13;5140855;57;20766;-74
2021/07/13 13:24:01;;;;;;;0.50;0.50;;;;;;;17.34;77.64;95660.75;5146503;57;20143;-75
2021/07/13 13:29:04;;;;;;;0.50;0.30;;;;;;;17.18;79.74;95672.81;5145562;57;20223;-74
2021/07/13 13:34:07;;;;;;;0.30;0.30;;;;;;;16.87;79.63;95670.56;5149831;57;20767;-74
2021/07/13 13:39:18;;;;;;;1.08;0.30;;;;;;;16.76;79.81;95673.44;5152921;57;20142;-74
2021/07/13 13:44:20;;;;;;;0.45;0.45;;;;;;;16.73;82.43;95678.03;5154075;57;20737;-73
2021/07/13 13:49:22;;;;;;;0.30;0.30;;;;;;;16.87;81.82;95715.94;5151296;57;20138;-73
2021/07/13 13:54:25;;;;;;;0.60;0.60;;;;;;;16.40;83.79;95835.13;5150183;57;20603;-74
2021/07/13 13:59:27;;;;;;;0.65;0.60;;;;;;;16.07;89.34;95801.78;5146282;57;20121;-72
2021/07/13 14:04:30;;;;;;;3.40;0.82;;;;;;;15.65;92.48;95641.31;5145299;57;20135;-73
2021/07/13 14:09:32;;;;;;;1.15;0.45;;;;;;;15.65;92.46;95832.72;5148644;57;20182;-73
2021/07/13 14:14:57;;;;;;;1.60;0.90;;;;;;;16.11;92.14;95815.44;5152047;57;20156;-73
2021/07/13 14:19:59;;;;;;;2.05;0.63;;;;;;;16.10;91.36;95794.41;5139205;57;20651;-74
2021/07/13 14:25:04;;;;;;;0.50;0.50;;;;;;;16.27;90.80;95804.25;5139471;57;20121;-74
2021/07/13 14:30:08;;;;;;;0.55;0.55;;;;;;;15.82;91.04;95724.06;5150670;57;20600;-74
2021/07/13 14:35:12;;;;;;;1.85;0.70;;;;;;;15.84;92.21;95797.53;5152004;57;20588;-72
2021/07/13 14:40:15;;;;;;;0.50;0.50;;;;;;;15.70;90.67;95868.94;5139052;57;20229;-73
2021/07/13 14:45:17;;;;;;;0.60;0.50;;;;;;;15.70;91.17;95846.66;5150389;57;20116;-73
2021/07/13 14:50:20;;;;;;;1.55;0.68;;;;;;;15.75;91.15;95792.22;5143483;57;20139;-74
2021/07/13 14:55:22;;;;;;;1.20;0.70;;;;;;;15.56;91.05;95739.06;5136823;57;20130;-75
2021/07/13 15:00:25;;;;;;;1.02;0.63;;;;;;;15.73;91.76;95748.16;5138560;57;20130;-73
2021/07/13 15:05:27;;;;;;;1.30;0.60;;;;;;;15.76;92.34;95805.63;5154345;57;20130;-73
2021/07/13 15:10:34;;;;;;;0.95;0.70;;;;;;;15.87;91.44;95798.53;5149988;57;20539;-74
2021/07/13 15:15:36;;;;;;;1.00;0.70;;;;;;;15.64;92.01;95809.72;5149830;57;20112;-73
2021/07/13 15:20:40;;;;;;;6.57;1.92;;;;;;;15.87;92.35;95802.06;5136487;57;20135;-74
2021/07/13 15:25:43;;;;;;;2.47;0.60;;;;;;;15.87;90.96;95868.19;5146611;57;20135;-74
2021/07/13 15:30:45;;;;;;;0.85;0.60;;;;;;;15.74;91.00;95883.38;5138360;57;20240;-72
2021/07/13 15:35:48;;;;;;;0.70;0.70;;;;;;;15.83;91.92;95856.53;5138541;57;20165;-74
2021/07/13 15:40:51;;;;;;;0.95;0.75;;;;;;;15.84;91.45;95869.19;5145979;57;20121;-74
2021/07/13 15:45:54;;;;;;;1.02;0.90;;;;;;;16.02;90.41;95871.44;5140042;57;20210;-75
2021/07/13 15:51:01;;;;;;;1.00;1.00;;;;;;;15.51;92.32;95767.69;5140204;57;20165;-72
2021/07/13 15:56:04;;;;;;;2.67;1.38;;;;;;;15.59;93.29;95715.00;5140614;57;20135;-75
2021/07/13 16:01:10;;;;;;;2.55;2.10;;;;;;;16.02;91.08;95720.97;5144249;57;20653;-75
2021/07/13 16:06:13;;;;;;;3.78;1.50;;;;;;;16.39;89.47;95679.47;5142037;57;20122;-75
2021/07/13 16:11:16;;;;;;;1.58;1.15;;;;;;;17.16;88.11;95704.03;5158401;57;20138;-75
2021/07/13 16:16:18;;;;;;;1.70;0.95;;;;;;;17.35;85.00;95714.53;5148690;57;20121;-75
2021/07/13 16:21:22;;;;;;;0.93;0.93;;;;;;;17.45;84.47;95687.78;5148444;57;20135;-76
2021/07/13 16:26:26;;;;;;;4.25;1.05;;;;;;;17.73;85.51;95658.28;5151753;57;20134;-74
2021/07/13 16:31:28;;;;;;;2.15;1.50;;;;;;;17.45;85.18;95671.03;5140480;57;20146;-75
2021/07/13 16:36:31;;;;;;;1.42;1.17;;;;;;;17.54;85.53;95684.69;5153312;57;20138;-75
2021/07/13 16:41:33;;;;;;;4.40;1.30;;;;;;;17.43;84.48;95687.56;5150391;57;20138;-76
2021/07/13 16:46:37;;;;;;;1.27;1.17;;;;;;;17.82;85.28;95685.16;5153572;57;20116;-75
2021/07/13 16:51:40;;;;;;;1.17;1.10;;;;;;;17.61;85.36;95656.16;5159768;57;20153;-75
2021/07/13 16:56:42;;;;;;;2.88;1.15;;;;;;;17.67;85.05;95719.09;5148964;57;20178;-75
2021/07/13 17:01:44;;;;;;;1.00;1.00;;;;;;;17.43;86.15;95738.59;5145413;57;20121;-76
2021/07/13 17:06:47;;;;;;;1.30;1.20;;;;;;;17.25;86.06;95735.72;5139117;57;20135;-76
2021/07/13 17:11:50;;;;;;;2.15;1.30;;;;;;;17.03;86.14;95723.44;5144394;57;20133;-76
2021/07/13 17:16:54;;;;;;;1.40;1.10;;;;;;;17.17;86.50;95705.56;5147924;57;20149;-76
2021/07/13 17:21:58;;;;;;;1.63;0.98;;;;;;;17.31;86.08;95709.25;5151024;57;20579;-76
2021/07/13 17:27:00;;;;;;;1.25;1.08;;;;;;;17.21;85.95;95720.00;5149695;57;20256;-75
2021/07/13 17:32:03;;;;;;;6.47;1.20;;;;;;;17.01;87.59;95719.66;5149166;57;20154;-75
2021/07/13 17:37:06;;;;;;;1.77;1.15;;;;;;;17.11;86.63;95730.00;5149579;57;20135;-75
2021/07/13 17:42:09;;;;;;;1.55;0.90;;;;;;;17.10;87.06;95761.19;5149593;57;20168;-75
2021/07/13 17:47:14;;;;;;;2.30;1.00;;;;;;;17.16;87.71;95740.31;5133404;57;20744;-75
2021/07/13 17:52:16;;;;;;;2.95;1.10;;;;;;;17.15;86.50;95750.00;5148450;57;20114;-76
2021/07/13 17:57:19;;;;;;;2.15;1.10;;;;;;;17.02;85.99;95769.38;5144547;57;20139;-75
2021/07/13 18:02:21;;;;;;;0.88;0.88;;;;;;;16.78;87.28;95797.19;5146924;57;20134;-75
2021/07/13 18:07:24;;;;;;;1.00;0.95;;;;;;;16.70;86.63;95792.66;5151387;57;20130;-77
2021/07/13 18:12:27;;;;;;;1.13;1.02;;;;;;;16.72;88.03;95774.13;5154767;57;20139;-77
2021/07/13 18:17:29;;;;;;;1.35;1.10;;;;;;;16.78;87.42;95758.13;5155024;57;20121;-73
2021/07/13 18:22:32;;;;;;;1.02;1.00;;;;;;;16.76;86.04;95751.56;5149737;57;20160;-74
2021/07/13 18:27:36;;;;;;;1.10;1.10;;;;;;;16.59;88.55;95768.38;5155621;57;20127;-78
2021/07/13 18:32:39;;;;;;;5.22;1.45;;;;;;;16.72;87.77;95757.41;5154679;57;20127;-75
2021/07/13 18:37:42;;;;;;;1.13;0.80;;;;;;;16.63;88.04;95774.44;5145916;57;20133;-75
2021/07/13 18:42:45;;;;;;;1.70;1.10;;;;;;;16.72;87.63;95771.34;5156549;57;20125;-75
2021/07/13 18:47:47;;;;;;;0.80;0.80;;;;;;;16.58;88.25;95763.34;5157475;57;20266;-74
2021/07/13 18:52:51;;;;;;;3.50;1.42;;;;;;;16.48;89.29;95762.84;5149576;57;20779;-75
2021/07/13 18:57:53;;;;;;;0.85;0.85;;;;;;;16.28;89.86;95749.97;5156912;57;20129;-75
2021/07/13 19:02:56;;;;;;;0.90;0.90;;;;;;;16.54;89.29;95763.59;5154173;57;20121;-75
2021/07/13 19:07:59;;;;;;;0.90;0.90;;;;;;;16.43;87.67;95774.78;5157529;57;20137;-75
2021/07/13 19:13:05;;;;;;;0.95;0.95;;;;;;;16.46;88.46;95774.50;5155813;57;20638;-75
2021/07/13 19:18:07;;;;;;;1.08;1.08;;;;;;;16.44;89.12;95773.50;5155241;57;20205;-75
2021/07/13 19:23:10;;;;;;;1.00;0.95;;;;;;;16.49;87.45;95792.22;5147798;57;20143;-73
2021/07/13 19:28:12;;;;;;;3.60;1.02;;;;;;;16.36;89.13;95809.53;5155702;57;20126;-72
2021/07/13 19:33:21;;;;;;;1.85;0.98;;;;;;;16.36;87.93;95822.72;5153503;57;20129;-74
2021/07/13 19:38:23;;;;;;;1.30;1.17;;;;;;;16.35;88.28;95816.38;5145829;57;20125;-73
2021/07/13 19:43:25;;;;;;;1.33;1.00;;;;;;;16.24;89.60;95802.47;5144451;57;20156;-73
2021/07/13 19:48:28;;;;;;;2.67;0.90;;;;;;;16.08;90.89;95785.81;5140906;57;20121;-73
2021/07/13 19:53:32;;;;;;;0.82;0.70;;;;;;;16.09;90.68;95813.16;5141071;57;20685;-73
2021/07/13 19:58:34;;;;;;;2.58;0.98;;;;;;;16.13;91.38;95810.09;5147787;57;20116;-73
2021/07/13 20:03:36;;;;;;;1.25;1.20;;;;;;;16.11;90.66;95790.34;5151581;57;20125;-73
2021/07/13 20:08:39;;;;;;;3.42;1.65;;;;;;;15.94;91.11;95781.28;5156657;57;20134;-73
2021/07/13 20:13:41;;;;;;;5.63;1.60;;;;;;;16.10;90.55;95767.28;5159127;57;20125;-72
2021/07/13 20:18:45;;;;;;;6.00;1.30;;;;;;;16.04;90.69;95763.00;5157819;57;20666;-73
2021/07/13 20:23:47;;;;;;;2.83;1.17;;;;;;;15.84;90.96;95768.88;5156741;57;20125;-73
2021/07/13 20:28:50;;;;;;;4.10;0.98;;;;;;;15.88;91.89;95806.38;5146321;57;20130;-74
2021/07/13 20:33:52;;;;;;;2.55;1.02;;;;;;;15.98;91.38;95804.06;5158386;57;20112;-73
2021/07/13 20:38:55;;;;;;;1.95;1.10;;;;;;;15.85;91.46;95799.03;5150746;57;20235;-72
2021/07/13 20:43:57;;;;;;;1.55;1.20;;;;;;;15.76;91.21;95802.09;5154372;57;20157;-72
2021/07/13 20:49:00;;;;;;;0.90;0.90;;;;;;;15.56;92.56;95794.75;5159768;57;20653;-73
2021/07/13 20:54:02;;;;;;;2.63;1.05;;;;;;;15.69;91.92;95805.41;5160289;57;20143;-73
2021/07/13 20:59:05;;;;;;;2.22;0.95;;;;;;;15.73;91.59;95809.44;5159393;57;20134;-73
2021/07/13 21:04:07;;;;;;;1.38;1.00;;;;;;;15.63;92.03;95813.75;5158955;57;20138;-73
2021/07/13 21:09:10;;;;;;;1.20;1.08;;;;;;;15.64;92.45;95831.22;5160454;57;20134;-73
2021/07/13 21:14:12;;;;;;;1.10;1.10;;;;;;;15.78;91.57;95830.94;5160819;57;20675;-73
2021/07/13 21:19:15;;;;;;;2.08;1.40;;;;;;;15.78;90.73;95819.06;5154719;57;20224;-72
2021/07/13 21:24:17;;;;;;;2.15;1.50;;;;;;;15.67;90.88;95799.59;5162695;57;20128;-72
2021/07/13 21:29:20;;;;;;;1.48;1.38;;;;;;;15.56;91.57;95797.56;5160679;57;20124;-72
2021/07/13 21:34:27;;;;;;;1.38;1.27;;;;;;;15.84;90.93;95830.19;5161772;57;20134;-72
2021/07/13 21:39:29;;;;;;;4.10;1.40;;;;;;;15.99;90.59;95848.16;5153481;57;20688;-73
2021/07/13 21:44:31;;;;;;;5.30;1.80;;;;;;;15.88;90.47;95839.03;5161992;57;20124;-73
2021/07/13 21:49:34;;;;;;;2.58;1.30;;;;;;;15.84;90.82;95850.44;5161993;57;20599;-73
2021/07/13 21:54:37;;;;;;;1.08;1.08;;;;;;;15.78;91.36;95858.81;5162382;57;20129;-73
2021/07/13 21:59:39;;;;;;;3.40;1.50;;;;;;;15.81;90.87;95850.72;5161838;57;20111;-73
2021/07/13 22:04:41;;;;;;;3.03;1.20;;;;;;;15.71;90.96;95842.63;5160425;57;20138;-73
2021/07/13 22:09:44;;;;;;;4.53;1.48;;;;;;;15.82;91.56;95855.00;5158583;57;20160;-73
2021/07/13 22:14:46;;;;;;;3.72;1.48;;;;;;;15.85;90.46;95840.06;5159599;57;20134;-73
2021/07/13 22:19:49;;;;;;;4.93;1.35;;;;;;;15.84;90.88;95810.69;5157297;57;20121;-73
2021/07/13 22:24:51;;;;;;;1.60;1.50;;;;;;;16.01;90.95;95830.94;5149453;57;20116;-73
2021/07/13 22:29:54;;;;;;;9.45;1.52;;;;;;;15.83;91.36;95820.31;5159104;57;20146;-72
2021/07/13 22:34:56;;;;;;;3.60;1.70;;;;;;;16.00;90.64;95830.16;5156634;57;20993;-73
2021/07/13 22:39:58;;;;;;;1.55;1.45;;;;;;;15.79;90.77;95832.47;5158395;57;20107;-73
2021/07/13 22:45:03;;;;;;;1.60;1.50;;;;;;;15.81;91.02;95826.38;5159688;57;20116;-73
2021/07/13 22:50:08;;;;;;;1.88;1.20;;;;;;;15.84;90.68;95819.03;5159221;57;20671;-73
2021/07/13 22:55:11;;;;;;;1.38;1.30;;;;;;;15.68;90.74;95793.50;5157937;57;20146;-73
2021/07/13 23:00:16;;;;;;;2.30;1.35;;;;;;;15.89;90.45;95793.97;5157722;57;20124;-73
2021/07/13 23:05:19;;;;;;;2.42;1.50;;;;;;;15.90;90.20;95795.47;5150973;57;20143;-73
2021/07/13 23:10:22;;;;;;;1.88;1.20;;;;;;;15.90;90.45;95840.06;5159133;57;20125;-73
2021/07/13 23:15:26;;;;;;;3.65;1.40;;;;;;;15.96;90.66;95837.25;5159201;57;20120;-73
2021/07/13 23:20:28;;;;;;;1.15;1.08;;;;;;;15.83;90.60;95840.56;5150522;57;20133;-72
2021/07/13 23:25:31;;;;;;;1.52;1.40;;;;;;;15.82;90.33;95835.50;5159150;57;20697;-72
2021/07/13 23:30:33;;;;;;;1.42;1.20;;;;;;;15.58;91.01;95799.84;5159385;57;20141;-73
2021/07/13 23:35:36;;;;;;;4.82;1.20;;;;;;;15.53;91.54;95787.44;5159043;57;20134;-73
2021/07/13 23:40:38;;;;;;;1.92;1.25;;;;;;;15.54;91.41;95769.44;5159900;57;20720;-74
2021/07/13 23:45:40;;;;;;;1.67;1.13;;;;;;;15.59;91.74;95790.97;5159083;57;20590;-73
2021/07/13 23:50:43;;;;;;;4.43;1.50;;;;;;;15.76;90.86;95796.53;5158626;57;20233;-73